Wheeling, Indiana
Current Conditions -  °F | °C
As of 4:53 PM on Monday 20 Oct 2014 (Local Time) from KMIE Reporting Station
Broken Clouds Broken Clouds  
Wind Chill: 64°   Ceiling: 4100
Heat Index: 64°   Visibility: 10mi
Dew Point: 49°   Wind: 12mph
Humidity: 58%   Direction: 290°WNW
Pressure: 29.82"   Gusts: NA
Location:  40.3233°N, 85.5202°W
Report Text: KMIE 202053Z 29010KT 10SM BKN041 BKN050 BKN060 18/09 A2982 RMK AO2 SLP093 T01780094 56007
Loading
Personal Weather Stations






























Interactive Weather Map
Tropical Storm Tracking
New forecast layout! Learn more

10-Day Weather Forecast

Advertisements
Track Severe Weather on mobile